Data for 04/07/2013

Time Sea-Level Adjusted Pressure Absolute Pressure Temperature Relative Humidity Dew Point   
(mb) (inHg) (mb) (inHg) (C) (F) (%) (C) (F)
00:05 1012 29.88 841 24.83 3.9 39.1 86 1.7 35.1
00:10 1012 29.88 842 24.86 3.5 38.3 89 1.8 35.3
00:15 1012 29.88 842 24.86 3.1 37.6 88 1.3 34.4
00:20 1012 29.88 841 24.83 3.3 38 87 1.4 34.4
00:25 1012 29.88 841 24.83 3.3 37.9 87 1.3 34.4
00:30 1012 29.88 841 24.83 3.3 37.9 86 1.2 34.2
00:35 1012 29.88 841 24.83 3.4 38.1 86 1.2 34.2
00:40 1012 29.88 841 24.83 3.5 38.2 85 1.1 34
00:45 1012 29.88 841 24.83 3.5 38.2 87 1.4 34.6
00:50 1012 29.88 841 24.83 3.3 38 88 1.6 34.8
00:55 1012 29.88 841 24.83 3.1 37.6 89 1.4 34.6
01:00 1012 29.88 841 24.83 3.1 37.6 88 1.4 34.5
01:05 1012 29.88 841 24.83 3 37.4 90 1.5 34.7
01:10 1012 29.88 841 24.83 3 37.4 90 1.6 34.8
01:15 1012 29.88 841 24.83 2.9 37.2 90 1.4 34.5
01:20 1012 29.88 841 24.83 2.8 37 89 1.2 34.1
01:25 1012 29.88 841 24.83 2.7 36.8 88 0.9 33.7
01:30 1012 29.88 841 24.83 2.8 37.1 88 1 33.8
01:35 1012 29.88 841 24.83 3 37.3 87 1 33.8
01:40 1012 29.88 841 24.83 3.2 37.7 86 1 33.7
01:45 1012 29.88 841 24.83 3.3 37.9 85 0.9 33.7
01:50 1012 29.88 841 24.83 3.2 37.8 83 0.6 33.1
01:55 1012 29.88 841 24.83 3.2 37.7 83 0.6 33
02:00 1012 29.88 841 24.83 3.2 37.7 84 0.7 33.3
02:05 1011 29.85 841 24.83 3.1 37.5 84 0.6 33
02:10 1011 29.85 841 24.83 3 37.5 84 0.5 33
02:15 1011 29.85 841 24.83 3.1 37.5 83 0.5 32.8
02:20 1011 29.85 840 24.81 2.9 37.3 83 0.4 32.7
02:25 1011 29.85 840 24.81 2.9 37.2 84 0.4 32.8
02:30 1011 29.85 840 24.81 2.7 36.8 85 0.3 32.6
02:35 1011 29.85 840 24.81 2.5 36.5 85 0.2 32.4
02:40 1011 29.85 840 24.81 2.6 36.8 83 0.1 32.2
02:45 1011 29.85 840 24.81 2.7 36.9 83 0.2 32.3
02:50 1011 29.85 840 24.81 2.7 36.9 82 -0 32
02:55 1011 29.85 840 24.81 2.6 36.7 84 0.3 32.5
03:00 1011 29.85 840 24.81 2.5 36.4 82 -0.3 31.5
03:05 1011 29.85 840 24.81 2.8 37.1 80 -0.3 31.4
03:10 1011 29.85 840 24.81 2.8 37.1 82 0 32
03:15 1011 29.85 840 24.81 2.4 36.3 85 0.1 32.1
03:20 1010 29.83 840 24.81 1.9 35.5 87 -0 32
03:25 1010 29.83 840 24.81 1.9 35.4 85 -0.3 31.4
03:30 1010 29.83 840 24.81 1.9 35.5 85 -0.3 31.4
03:35 1010 29.83 839 24.78 1.8 35.3 85 -0.4 31.2
03:40 1010 29.83 839 24.78 1.9 35.5 84 -0.5 31.1
03:45 1010 29.83 839 24.78 2.1 35.8 84 -0.4 31.4
03:50 1010 29.83 839 24.78 2 35.6 85 -0.3 31.5
03:55 1010 29.83 839 24.78 1.9 35.3 88 0 32
04:00 1010 29.83 839 24.78 1.6 34.9 86 -0.5 31.1
04:05 1010 29.83 839 24.78 1.7 35 87 -0.4 31.4
04:10 1010 29.83 839 24.78 1.5 34.6 87 -0.5 31.2
04:15 1010 29.83 839 24.78 1.5 34.7 85 -0.7 30.7
04:20 1010 29.83 839 24.78 1.7 35.1 86 -0.4 31.2
04:25 1010 29.83 839 24.78 1.6 34.9 85 -0.7 30.7
04:30 1009 29.8 839 24.78 1.7 35.1 83 -0.8 30.5
04:35 1009 29.8 839 24.78 1.7 35.1 84 -0.7 30.7
04:40 1009 29.8 839 24.78 1.8 35.2 82 -1 30.3
04:45 1009 29.8 839 24.78 1.8 35.3 83 -0.7 30.7
04:50 1009 29.8 839 24.78 1.8 35.2 83 -0.9 30.4
04:55 1009 29.8 839 24.78 1.7 35.1 83 -0.8 30.6
05:00 1009 29.8 839 24.78 1.8 35.2 81 -1.2 29.9
05:05 1009 29.8 838 24.75 2 35.7 80 -1 30.2
05:10 1009 29.8 838 24.75 2 35.5 81 -0.9 30.4
05:15 1009 29.8 838 24.75 2 35.5 81 -0.9 30.4
05:20 1009 29.8 838 24.75 1.8 35.2 83 -0.8 30.6
05:25 1009 29.8 838 24.75 1.7 35.1 82 -1.1 30.1
05:30 1009 29.8 838 24.75 2.2 35.9 79 -1 30.1
05:35 1009 29.8 838 24.75 2.2 36 80 -0.8 30.5
05:40 1009 29.8 838 24.75 2.2 35.9 81 -0.8 30.6
05:45 1009 29.8 838 24.75 2.1 35.8 82 -0.7 30.7
05:50 1009 29.8 838 24.75 2 35.6 82 -0.7 30.7
05:55 1009 29.8 838 24.75 1.9 35.4 82 -0.8 30.5
06:00 1009 29.8 838 24.75 1.9 35.4 83 -0.7 30.8
06:05 1009 29.8 838 24.75 1.8 35.3 84 -0.7 30.8
06:10 1009 29.8 838 24.75 1.9 35.4 84 -0.6 30.9
06:15 1009 29.8 838 24.75 2 35.6 83 -0.6 31
06:20 1009 29.8 838 24.75 2 35.6 82 -0.8 30.6
06:25 1009 29.8 838 24.75 2 35.5 82 -0.8 30.5
06:30 1009 29.8 838 24.75 2.1 35.8 82 -0.7 30.8
06:35 1009 29.8 838 24.75 2.2 36 81 -0.7 30.8
06:40 1009 29.8 838 24.75 2.3 36.1 81 -0.6 30.9
06:45 1009 29.8 838 24.75 2.4 36.3 81 -0.5 31.1
06:50 1009 29.8 838 24.75 2.4 36.4 81 -0.5 31.1
06:55 1009 29.8 838 24.75 2.4 36.3 81 -0.6 30.9
07:00 1009 29.8 838 24.75 2.4 36.4 79 -0.8 30.6
07:05 1008 29.77 838 24.75 2.6 36.6 79 -0.7 30.7
07:10 1008 29.77 838 24.75 2.8 37 78 -0.7 30.8
07:15 1008 29.77 838 24.75 3.1 37.6 77 -0.5 31
07:20 1008 29.77 838 24.75 3.3 37.9 76 -0.5 31.2
07:25 1008 29.77 837 24.72 3.4 38.1 76 -0.4 31.3
07:30 1008 29.77 837 24.72 3.5 38.3 74 -0.6 30.9
07:35 1008 29.77 837 24.72 3.6 38.5 74 -0.6 30.9
07:40 1008 29.77 837 24.72 3.6 38.5 75 -0.3 31.4
07:45 1008 29.77 837 24.72 3.6 38.5 74 -0.5 31.1
07:50 1008 29.77 837 24.72 3.7 38.7 75 -0.3 31.5
07:55 1008 29.77 837 24.72 3.8 38.8 75 -0.2 31.6
08:00 1008 29.77 837 24.72 3.8 38.9 73 -0.6 31
08:05 1008 29.77 837 24.72 3.9 39 74 -0.4 31.3
08:10 1008 29.77 837 24.72 4 39.2 74 -0.2 31.6
08:15 1008 29.77 837 24.72 4.1 39.3 72 -0.4 31.2
08:20 1008 29.77 837 24.72 4.1 39.4 74 -0.1 31.9
08:25 1008 29.77 837 24.72 4.3 39.7 71 -0.5 31
08:30 1007 29.74 837 24.72 4.4 39.8 73 -0 31.9
08:35 1007 29.74 837 24.72 4.5 40.1 71 -0.2 31.7
08:40 1007 29.74 836 24.69 4.7 40.4 71 -0.2 31.7
08:45 1007 29.74 836 24.69 5 41 68 -0.4 31.3
08:50 1007 29.74 836 24.69 5.2 41.3 70 0.2 32.4
08:55 1007 29.74 836 24.69 5.5 41.9 65 -0.5 31.1
09:00 1007 29.74 836 24.69 5.7 42.2 67 -0 31.9
09:05 1007 29.74 836 24.69 6.2 43.1 68 0.6 33.1
09:10 1007 29.74 836 24.69 6.3 43.4 68 0.8 33.4
09:15 1007 29.74 836 24.69 6.6 43.8 61 -0.4 31.3
09:20 1007 29.74 836 24.69 6.6 43.9 62 -0.1 31.8
09:25 1007 29.74 836 24.69 6.6 43.9 62 -0 31.9
09:30 1007 29.74 836 24.69 6.8 44.2 61 -0.1 31.8
09:35 1007 29.74 836 24.69 7.2 44.9 60 -0 31.9
09:40 1007 29.74 836 24.69 7.4 45.4 60 0.2 32.3
09:45 1007 29.74 836 24.69 7.8 46 54 -0.9 30.4
09:50 1007 29.74 836 24.69 7.7 45.8 52 -1.5 29.3
09:55 1007 29.74 836 24.69 8 46.4 52 -1.3 29.6
10:00 1007 29.74 836 24.69 8.3 46.9 50 -1.5 29.4
10:05 1007 29.74 836 24.69 8.5 47.3 48 -1.7 28.9
10:10 1007 29.74 836 24.69 8.8 47.8 48 -1.6 29
10:15 1007 29.74 836 24.69 8.9 48.1 46 -2.1 28.2
10:20 1007 29.74 836 24.69 9.6 49.3 43 -2.3 27.9
10:25 1007 29.74 836 24.69 9.9 49.9 42 -2.4 27.6
10:30 1007 29.74 836 24.69 10.2 50.3 42 -2.1 28.3
10:35 1007 29.74 836 24.69 10.3 50.5 43 -1.8 28.8
10:40 1007 29.74 836 24.69 10 50.1 43 -1.9 28.5
10:45 1007 29.74 836 24.69 9.6 49.2 44 -2.1 28.3
10:50 1007 29.74 836 24.69 9.6 49.4 43 -2.4 27.6
10:55 1007 29.74 836 24.69 9.3 48.8 43 -2.6 27.3
11:00 1006 29.71 836 24.69 9.6 49.3 43 -2.3 27.9
11:05 1006 29.71 836 24.69 9.7 49.5 42 -2.6 27.3
11:10 1006 29.71 836 24.69 10 50 42 -2.4 27.7
11:15 1006 29.71 835 24.66 10.1 50.1 42 -2.1 28.2
11:20 1006 29.71 835 24.66 9.7 49.5 44 -2.1 28.3
11:25 1006 29.71 835 24.66 10.2 50.3 40 -2.7 27.1
11:30 1006 29.71 835 24.66 10 50 44 -1.7 28.9
11:35 1006 29.71 835 24.66 9.9 49.8 43 -2.1 28.3
11:40 1006 29.71 835 24.66 9.8 49.7 37 -4 24.7
11:45 1006 29.71 835 24.66 9.9 49.9 38 -3.9 25.1
11:50 1006 29.71 835 24.66 10 50 37 -3.9 25
11:55 1006 29.71 835 24.66 10.1 50.1 39 -3.3 26.1
12:00 1006 29.71 835 24.66 9.9 49.8 40 -3.2 26.2
12:05 1006 29.71 835 24.66 9.8 49.7 41 -2.9 26.8
12:10 1005 29.68 835 24.66 9.8 49.6 39 -3.5 25.8
12:15 1005 29.68 835 24.66 9.7 49.5 41 -2.8 27
12:20 1005 29.68 835 24.66 9.6 49.3 43 -2.3 27.8
12:25 1005 29.68 834 24.63 9.5 49.2 43 -2.4 27.7
12:30 1005 29.68 834 24.63 9.6 49.3 43 -2.4 27.7
12:35 1005 29.68 834 24.63 9.6 49.3 43 -2.4 27.6
12:40 1005 29.68 834 24.63 9.5 49.1 43 -2.5 27.5
12:45 1005 29.68 834 24.63 9.7 49.4 41 -2.9 26.8
12:50 1005 29.68 834 24.63 9.8 49.7 38 -3.7 25.4
12:55 1005 29.68 834 24.63 9.8 49.6 40 -3.3 26.1
13:00 1005 29.68 834 24.63 9.6 49.3 39 -3.8 25.2
13:05 1005 29.68 834 24.63 9.6 49.3 39 -3.7 25.4
13:10 1005 29.68 834 24.63 9.9 49.8 39 -3.3 26
13:15 1005 29.68 834 24.63 10.4 50.6 38 -3.3 26.1
13:20 1005 29.68 834 24.63 11.3 52.4 36 -3.3 26.1
13:25 1004 29.65 834 24.63 11.5 52.8 34 -3.8 25.2
13:30 1004 29.65 834 24.63 11 51.7 36 -3.6 25.5
13:35 1004 29.65 833 24.6 10.5 50.9 37 -3.5 25.7
13:40 1004 29.65 834 24.63 10.2 50.3 37 -3.8 25.2
13:45 1005 29.68 834 24.63 9.7 49.5 53 0.6 33.1
13:50 1005 29.68 834 24.63 8.4 47.1 58 0.7 33.3
13:55 1005 29.68 834 24.63 8.4 47 53 -0.6 30.9
14:00 1005 29.68 834 24.63 8.5 47.3 51 -1 30.1
14:05 1005 29.68 834 24.63 8.6 47.5 53 -0.5 31.2
14:10 1005 29.68 834 24.63 8.5 47.3 55 -0.1 31.9
14:15 1005 29.68 834 24.63 8.4 47.1 55 -0 31.9
14:20 1005 29.68 834 24.63 8.5 47.2 55 -0.1 31.7
14:25 1005 29.68 834 24.63 8.4 47.1 58 0.7 33.2
14:30 1005 29.68 834 24.63 8.5 47.3 57 0.6 33
14:35 1005 29.68 834 24.63 8.3 46.9 64 2 35.6
14:40 1005 29.68 834 24.63 7.4 45.4 70 2.4 36.2
14:45 1005 29.68 834 24.63 6.4 43.6 74 2.1 35.7
14:50 1005 29.68 834 24.63 6.5 43.7 70 1.4 34.5
14:55 1005 29.68 834 24.63 6.9 44.5 63 0.4 32.7
15:00 1005 29.68 834 24.63 6.9 44.5 64 0.7 33.3
15:05 1005 29.68 834 24.63 6.7 44.1 66 0.8 33.4
15:10 1005 29.68 834 24.63 6.5 43.8 62 -0.2 31.6
15:15 1005 29.68 834 24.63 6.4 43.4 63 -0.2 31.6
15:20 1005 29.68 834 24.63 6.4 43.4 62 -0.3 31.4
15:25 1005 29.68 834 24.63 6 42.8 65 -0.1 31.8
15:30 1005 29.68 834 24.63 5.8 42.5 65 -0.1 31.8
15:35 1005 29.68 834 24.63 5.9 42.5 66 0 32
15:40 1005 29.68 834 24.63 5.6 42.1 72 0.9 33.6
15:45 1005 29.68 834 24.63 5.1 41.1 73 0.7 33.2
15:50 1005 29.68 834 24.63 4.9 40.9 72 0.3 32.6
15:55 1005 29.68 834 24.63 5.1 41.1 68 -0.3 31.4
16:00 1005 29.68 834 24.63 5.4 41.8 69 0.2 32.4
16:05 1005 29.68 834 24.63 5.2 41.4 71 0.5 32.9
16:10 1005 29.68 834 24.63 5.1 41.3 74 0.8 33.5
16:15 1005 29.68 834 24.63 4.8 40.7 75 0.7 33.3
16:20 1005 29.68 834 24.63 4.8 40.6 73 0.4 32.7
16:25 1005 29.68 834 24.63 5 41 72 0.4 32.8
16:30 1005 29.68 834 24.63 5.2 41.3 70 0.2 32.3
16:35 1005 29.68 834 24.63 5.4 41.7 69 0.1 32.2
16:40 1005 29.68 834 24.63 5.6 42.1 68 0.1 32.2
16:45 1005 29.68 834 24.63 5.8 42.5 68 0.4 32.7
16:50 1005 29.68 834 24.63 6.1 42.9 66 0.2 32.3
16:55 1005 29.68 834 24.63 6.2 43.1 66 0.3 32.5
17:00 1005 29.68 834 24.63 6.2 43.2 65 0.1 32.2
17:05 1005 29.68 835 24.66 6.3 43.4 64 0.1 32.2
17:10 1005 29.68 835 24.66 6.3 43.4 65 0.4 32.7
17:15 1005 29.68 835 24.66 6.4 43.4 67 0.7 33.3
17:20 1005 29.68 835 24.66 6.3 43.4 71 1.4 34.6
17:25 1006 29.71 835 24.66 5.5 42 77 1.8 35.2
17:30 1006 29.71 835 24.66 4.8 40.7 80 1.6 34.9
17:35 1006 29.71 835 24.66 4.5 40.2 81 1.5 34.8
17:40 1006 29.71 835 24.66 4.3 39.7 82 1.4 34.6
17:45 1006 29.71 835 24.66 4.2 39.5 82 1.3 34.4
17:50 1006 29.71 835 24.66 4 39.2 83 1.3 34.4
17:55 1006 29.71 835 24.66 3.9 38.9 83 1.3 34.3
18:00 1006 29.71 835 24.66 3.7 38.7 85 1.4 34.5
18:05 1006 29.71 835 24.66 3.5 38.3 87 1.5 34.7
18:10 1006 29.71 835 24.66 3.3 37.9 88 1.5 34.7
18:15 1006 29.71 836 24.69 3.2 37.8 89 1.6 34.9
18:20 1006 29.71 836 24.69 3.2 37.7 89 1.5 34.7
18:25 1007 29.74 836 24.69 3.2 37.7 88 1.4 34.5
18:30 1007 29.74 836 24.69 3.2 37.7 89 1.5 34.7
18:35 1007 29.74 836 24.69 2.9 37.3 88 1.1 34
18:40 1007 29.74 836 24.69 2.6 36.7 89 1 33.8
18:45 1007 29.74 836 24.69 2.2 36 89 0.6 33.1
18:50 1007 29.74 836 24.69 1.2 34.2 93 0.1 32.2
18:55 1007 29.74 836 24.69 0.8 33.4 94 -0.1 31.8
19:00 1007 29.74 836 24.69 0.7 33.3 95 -0 31.9
19:05 1007 29.74 836 24.69 0.7 33.3 94 -0.1 31.8
19:10 1007 29.74 836 24.69 0.5 32.9 95 -0.3 31.5
19:15 1007 29.74 836 24.69 0.4 32.7 96 -0.3 31.5
19:20 1007 29.74 836 24.69 0.5 32.9 95 -0.2 31.7
19:25 1007 29.74 836 24.69 0.5 33 95 -0.1 31.8
19:30 1007 29.74 836 24.69 0.7 33.3 95 -0 32
19:35 1007 29.74 836 24.69 0.9 33.7 94 0 32
19:40 1007 29.74 836 24.69 1.1 34 93 0 32
19:45 1007 29.74 836 24.69 1.3 34.4 91 0 32.1
19:50 1007 29.74 836 24.69 1.5 34.7 91 0.2 32.3
19:55 1007 29.74 836 24.69 1.6 35 90 0.1 32.2
20:00 1007 29.74 836 24.69 1.8 35.2 89 0.1 32.2
20:05 1007 29.74 836 24.69 1.9 35.4 89 0.2 32.4
20:10 1007 29.74 836 24.69 2 35.6 87 0.1 32.1
20:15 1007 29.74 836 24.69 2.2 36 86 0.2 32.3
20:20 1007 29.74 837 24.72 2.3 36.1 85 0.1 32.2
20:25 1007 29.74 837 24.72 2.3 36.2 86 0.2 32.4
20:30 1008 29.77 837 24.72 2.4 36.3 86 0.2 32.4
20:35 1008 29.77 837 24.72 2.5 36.4 85 0.2 32.3
20:40 1008 29.77 837 24.72 2.5 36.4 85 0.2 32.3
20:45 1008 29.77 837 24.72 2.4 36.4 85 0.2 32.4
20:50 1008 29.77 837 24.72 2.5 36.4 86 0.3 32.5
20:55 1008 29.77 837 24.72 2.5 36.5 86 0.4 32.7
21:00 1008 29.77 837 24.72 2.5 36.5 87 0.5 33
21:05 1008 29.77 837 24.72 2.5 36.5 88 0.7 33.2
21:10 1008 29.77 837 24.72 2.5 36.5 89 0.9 33.7
21:15 1008 29.77 837 24.72 2.5 36.5 90 1 33.9
21:20 1008 29.77 837 24.72 2.5 36.6 91 1.1 34.1
21:25 1008 29.77 837 24.72 2.6 36.7 90 1.2 34.1
21:30 1008 29.77 837 24.72 2.6 36.7 90 1.1 33.9
21:35 1008 29.77 837 24.72 2.5 36.5 90 1.1 33.9
21:40 1008 29.77 838 24.75 2.4 36.3 91 1 33.9
21:45 1008 29.77 838 24.75 2.3 36.2 91 1 33.9
21:50 1008 29.77 838 24.75 2.2 36 92 1 33.8
21:55 1008 29.77 838 24.75 2.2 35.9 92 1 33.7
22:00 1008 29.77 838 24.75 2.1 35.7 92 0.9 33.6
22:05 1009 29.8 838 24.75 1.9 35.5 92 0.8 33.4
22:10 1009 29.8 838 24.75 1.8 35.2 92 0.6 33.1
22:15 1009 29.8 838 24.75 1.7 35.1 91 0.5 32.9
22:20 1008 29.77 838 24.75 1.7 35 90 0.1 32.3
22:25 1008 29.77 838 24.75 1.5 34.7 90 0 32
22:30 1008 29.77 838 24.75 1.4 34.5 90 -0 32
22:35 1008 29.77 838 24.75 1.3 34.3 92 0 32.1
22:40 1008 29.77 838 24.75 1 33.8 90 -0.4 31.2
22:45 1009 29.8 838 24.75 0.7 33.2 90 -0.8 30.6
22:50 1009 29.8 838 24.75 0.5 32.9 89 -1 30.2
22:55 1009 29.8 838 24.75 0.4 32.8 88 -1.3 29.6
23:00 1009 29.8 838 24.75 0.4 32.8 86 -1.6 29.2
23:05 1009 29.8 838 24.75 0.4 32.6 86 -1.7 28.9
23:10 1009 29.8 838 24.75 0.2 32.4 86 -1.8 28.8
23:15 1009 29.8 838 24.75 0.1 32.2 87 -1.8 28.7
23:20 1009 29.8 838 24.75 0.1 32.1 86 -2 28.5
23:25 1009 29.8 838 24.75 0 32 86 -2 28.4
23:30 1009 29.8 838 24.75 -0.1 31.8 86 -2.2 28
23:35 1009 29.8 838 24.75 -0.1 31.8 86 -2.2 28.1
23:40 1009 29.8 838 24.75 -0.1 31.8 86 -2.2 28
23:45 1009 29.8 838 24.75 -0.2 31.7 86 -2.3 27.9
23:50 1009 29.8 838 24.75 -0.2 31.6 85 -2.4 27.7
23:55 1009 29.8 839 24.78 -0.2 31.7 85 -2.5 27.5
24:00 1009 29.8 839 24.78 -0.2 31.7 86 -2.3 27.8